createdAt,value
2023-02-13T00:01:42.373Z,7.90
2023-02-13T00:06:45.475Z,7.65
2023-02-13T00:11:48.660Z,8.32
2023-02-13T00:16:51.715Z,8.02
2023-02-13T00:21:54.948Z,7.90
2023-02-13T00:26:58.397Z,8.80
2023-02-13T00:37:04.547Z,8.25
2023-02-13T00:42:07.906Z,9.10
2023-02-13T00:47:10.970Z,9.13
2023-02-13T00:52:14.229Z,8.55
2023-02-13T00:57:17.375Z,8.80
2023-02-13T01:02:20.451Z,8.35
2023-02-13T01:07:23.782Z,7.85
2023-02-13T01:12:26.897Z,8.18
2023-02-13T01:17:30.035Z,7.45
2023-02-13T01:22:33.199Z,7.55
2023-02-13T01:27:36.407Z,7.68
2023-02-13T01:32:40.985Z,7.75
2023-02-13T01:37:44.151Z,7.95
2023-02-13T01:42:47.299Z,7.68
2023-02-13T01:48:18.357Z,7.78
2023-02-13T01:53:24.009Z,8.32
2023-02-13T01:58:33.456Z,8.90
2023-02-13T02:03:41.552Z,8.00
2023-02-13T02:08:49.711Z,8.25
2023-02-13T02:13:58.209Z,7.65
2023-02-13T02:19:46.303Z,8.30
2023-02-13T02:25:25.698Z,8.50
2023-02-13T02:30:53.740Z,8.60
2023-02-13T02:36:04.207Z,9.43
2023-02-13T02:41:33.081Z,9.40
2023-02-13T02:46:45.746Z,9.65
2023-02-13T02:51:58.316Z,9.05
2023-02-13T02:57:17.165Z,9.60
2023-02-13T03:02:28.184Z,9.10
2023-02-13T03:07:32.201Z,8.27
2023-02-13T03:13:06.271Z,8.82
2023-02-13T03:18:09.606Z,9.30
2023-02-13T03:23:36.188Z,8.98
2023-02-13T03:28:57.037Z,9.07
2023-02-13T03:34:07.286Z,9.35
2023-02-13T03:39:22.572Z,9.68
2023-02-13T03:44:31.419Z,8.57
2023-02-13T03:49:48.046Z,9.13
2023-02-13T03:54:57.809Z,9.02
2023-02-13T04:00:02.657Z,8.68
2023-02-13T04:05:22.170Z,8.98
2023-02-13T04:10:30.792Z,9.23
2023-02-13T04:16:16.191Z,9.60
2023-02-13T04:21:19.262Z,9.02
2023-02-13T04:26:23.884Z,9.68
2023-02-13T04:31:27.142Z,9.05
2023-02-13T04:36:30.625Z,8.00
2023-02-13T04:41:33.772Z,10.32
2023-02-13T04:51:39.852Z,9.98
2023-02-13T04:56:42.931Z,8.88
2023-02-13T05:01:46.267Z,8.82
2023-02-13T05:06:49.471Z,8.52
2023-02-13T05:11:54.118Z,9.05
2023-02-13T05:16:57.218Z,8.93
2023-02-13T05:22:00.478Z,8.40
2023-02-13T05:27:04.150Z,9.40
2023-02-13T05:32:07.789Z,7.97
2023-02-13T05:37:11.121Z,7.82
2023-02-13T05:42:14.278Z,7.68
2023-02-13T05:47:18.637Z,7.10
2023-02-13T05:52:21.791Z,7.40
2023-02-13T05:57:24.941Z,6.47
2023-02-13T06:02:28.099Z,7.95
2023-02-13T06:07:31.221Z,9.02
2023-02-13T06:12:34.373Z,7.53
2023-02-13T06:17:38.678Z,7.85
2023-02-13T06:22:41.732Z,7.22
2023-02-13T06:27:45.046Z,7.20
2023-02-13T06:37:51.831Z,7.43
2023-02-13T06:42:55.062Z,6.20
2023-02-13T06:47:58.849Z,6.88
2023-02-13T06:53:02.556Z,6.85
2023-02-13T07:03:10.237Z,5.90
2023-02-13T07:08:13.842Z,5.47
2023-02-13T07:13:17.016Z,5.43
2023-02-13T07:18:20.550Z,5.30
2023-02-13T07:23:23.652Z,5.75
2023-02-13T07:28:27.478Z,5.75
2023-02-13T07:33:30.599Z,5.85
2023-02-13T07:38:34.196Z,5.25
2023-02-13T07:48:40.284Z,6.45
2023-02-13T07:53:43.779Z,6.82
2023-02-13T07:58:47.000Z,7.00
2023-02-13T08:03:51.246Z,5.53
2023-02-13T08:08:54.723Z,6.28
2023-02-13T08:13:57.878Z,7.13
2023-02-13T08:19:01.024Z,6.40
2023-02-13T08:24:05.402Z,6.63
2023-02-13T08:29:08.944Z,7.20
2023-02-13T08:34:12.150Z,7.35
2023-02-13T08:39:15.340Z,6.90
2023-02-13T08:44:18.503Z,6.65
2023-02-13T08:49:21.647Z,7.97
2023-02-13T08:54:24.721Z,7.85
2023-02-13T08:59:27.893Z,8.45
2023-02-13T09:04:31.135Z,6.30
2023-02-13T09:09:34.718Z,6.88
2023-02-13T09:14:37.849Z,5.13
2023-02-13T09:19:41.058Z,5.50
2023-02-13T09:24:44.263Z,4.03
2023-02-13T09:29:47.432Z,4.55
2023-02-13T09:34:50.626Z,5.63
2023-02-13T09:39:53.837Z,4.03
2023-02-13T09:45:02.020Z,4.60
2023-02-13T09:50:23.436Z,4.82
2023-02-13T09:55:46.608Z,4.43
2023-02-13T10:00:58.553Z,4.03
2023-02-13T10:06:22.010Z,4.93
2023-02-13T10:11:58.369Z,5.63
2023-02-13T10:17:08.371Z,4.88
2023-02-13T10:22:18.267Z,4.60
2023-02-13T10:27:45.496Z,4.35
2023-02-13T10:33:13.797Z,4.35
2023-02-13T10:38:19.754Z,4.30
2023-02-13T10:43:30.295Z,5.20
2023-02-13T10:48:42.516Z,5.38
2023-02-13T10:54:10.333Z,4.95
2023-02-13T10:59:33.133Z,5.50
2023-02-13T11:04:36.293Z,4.55
2023-02-13T11:09:44.064Z,4.18
2023-02-13T11:15:05.135Z,4.30
2023-02-13T11:20:23.615Z,4.40
2023-02-13T11:25:28.938Z,4.50
2023-02-13T11:30:34.988Z,3.85
2023-02-13T11:35:38.894Z,3.88
2023-02-13T11:40:44.408Z,4.20
2023-02-13T11:45:47.691Z,4.72
2023-02-13T11:50:55.260Z,4.65
2023-02-13T11:56:06.578Z,5.25
2023-02-13T12:01:21.845Z,4.82
2023-02-13T12:06:24.998Z,4.57
2023-02-13T12:11:41.174Z,5.38
2023-02-13T12:16:55.717Z,4.57
2023-02-13T12:22:24.043Z,5.18
2023-02-13T12:27:39.971Z,5.65
2023-02-13T12:33:23.263Z,5.20
2023-02-13T12:38:41.618Z,4.85
2023-02-13T12:43:58.201Z,5.32
2023-02-13T12:49:38.786Z,4.70
2023-02-13T12:55:06.367Z,5.30
2023-02-13T13:00:16.036Z,4.78
2023-02-13T13:05:31.179Z,5.15
2023-02-13T13:10:54.310Z,4.85
2023-02-13T13:16:16.792Z,4.43
2023-02-13T13:21:27.741Z,4.60
2023-02-13T13:26:43.341Z,4.63
2023-02-13T13:31:58.880Z,4.47
2023-02-13T13:37:23.653Z,5.10
2023-02-13T13:42:41.523Z,5.03
2023-02-13T13:48:17.927Z,3.92
2023-02-13T13:53:22.263Z,3.83
2023-02-13T13:58:46.516Z,4.93
2023-02-13T14:04:21.708Z,4.60
2023-02-13T14:09:28.038Z,4.05
2023-02-13T14:14:31.516Z,4.97
2023-02-13T14:19:38.607Z,4.07
2023-02-13T14:24:44.243Z,4.03
2023-02-13T14:29:49.141Z,4.07
2023-02-13T14:34:57.164Z,3.80
2023-02-13T14:40:46.344Z,3.83
2023-02-13T14:45:55.506Z,4.00
2023-02-13T14:50:59.622Z,3.72
2023-02-13T14:56:09.125Z,4.20
2023-02-13T15:01:30.477Z,4.05
2023-02-13T15:06:39.916Z,4.22
2023-02-13T15:11:44.430Z,4.88
2023-02-13T15:16:53.155Z,5.80
2023-02-13T15:22:02.026Z,5.93
2023-02-13T15:27:07.693Z,5.38
2023-02-13T15:32:26.431Z,6.07
2023-02-13T15:37:31.223Z,5.40
2023-02-13T15:42:35.309Z,5.60
2023-02-13T15:47:39.666Z,5.68
2023-02-13T15:52:43.198Z,5.57
2023-02-13T15:57:47.048Z,6.13
2023-02-13T16:02:52.838Z,6.28
2023-02-13T16:07:58.421Z,6.28
2023-02-13T16:13:07.586Z,6.05
2023-02-13T16:18:20.077Z,6.05
2023-02-13T16:23:23.490Z,6.13
2023-02-13T16:28:29.736Z,6.07
2023-02-13T16:33:40.705Z,5.68
2023-02-13T16:38:47.220Z,7.00
2023-02-13T16:44:06.482Z,6.25
2023-02-13T16:49:09.628Z,5.78
2023-02-13T16:54:24.944Z,6.40
2023-02-13T16:59:53.030Z,6.07
2023-02-13T17:05:21.566Z,6.93
2023-02-13T17:10:36.700Z,7.40
2023-02-13T17:15:45.045Z,7.30
2023-02-13T17:20:48.571Z,7.20
2023-02-13T17:25:53.069Z,7.45
2023-02-13T17:30:58.912Z,7.88
2023-02-13T17:36:02.335Z,7.57
2023-02-13T17:41:12.049Z,7.70
2023-02-13T17:46:15.248Z,7.65
2023-02-13T18:01:25.071Z,7.53
2023-02-13T18:06:28.628Z,7.97
2023-02-13T18:11:31.809Z,7.90
2023-02-13T18:16:35.358Z,7.53
2023-02-13T18:21:38.966Z,7.70
2023-02-13T18:26:42.189Z,7.57
2023-02-13T18:31:45.517Z,8.00
2023-02-13T18:41:52.160Z,7.97
2023-02-13T18:46:55.395Z,7.68
2023-02-13T18:51:58.894Z,8.88
2023-02-13T18:57:01.991Z,8.57
2023-02-13T19:02:05.484Z,8.00
2023-02-13T19:07:08.727Z,8.30
2023-02-13T19:12:12.319Z,7.75
2023-02-13T19:17:16.099Z,7.95
2023-02-13T19:22:19.681Z,8.45
2023-02-13T19:37:35.793Z,8.40
2023-02-13T19:42:45.415Z,8.77
2023-02-13T19:47:48.493Z,8.40
2023-02-13T19:52:51.880Z,9.90
2023-02-13T20:03:05.184Z,9.18
2023-02-13T20:08:08.367Z,9.32
2023-02-13T20:13:11.796Z,9.80
2023-02-13T20:18:15.387Z,11.05
2023-02-13T20:23:18.984Z,10.05
2023-02-13T20:28:22.472Z,9.45
2023-02-13T20:33:26.182Z,11.20
2023-02-13T20:38:29.628Z,10.90
2023-02-13T20:43:32.816Z,11.10
2023-02-13T20:48:36.787Z,10.95
2023-02-13T20:53:41.076Z,10.75
2023-02-13T20:58:45.685Z,10.93
2023-02-13T21:03:50.434Z,11.15
2023-02-13T21:08:54.424Z,11.52
2023-02-13T21:13:58.682Z,11.88
2023-02-13T21:19:06.047Z,12.52
2023-02-13T21:24:11.853Z,10.88
2023-02-13T21:29:15.425Z,11.57
2023-02-13T21:34:19.002Z,11.48
2023-02-13T21:39:22.168Z,10.55
2023-02-13T21:44:25.535Z,11.07
2023-02-13T21:49:28.840Z,11.25
2023-02-13T21:54:31.990Z,11.32
2023-02-13T21:59:35.067Z,11.57
2023-02-13T22:04:38.253Z,11.73
2023-02-13T22:09:41.427Z,11.65
2023-02-13T22:14:44.560Z,11.57
2023-02-13T22:19:47.629Z,12.52
2023-02-13T22:24:50.756Z,12.50
2023-02-13T22:29:53.947Z,12.63
2023-02-13T22:34:57.041Z,12.93
2023-02-13T22:40:00.373Z,12.73
2023-02-13T22:45:05.799Z,12.13
2023-02-13T22:55:12.106Z,12.25
2023-02-13T23:00:16.271Z,11.65
2023-02-13T23:05:19.402Z,11.93
2023-02-13T23:10:23.045Z,11.57
2023-02-13T23:15:26.703Z,12.30
2023-02-13T23:20:29.764Z,12.30
2023-02-13T23:25:32.863Z,11.75
2023-02-13T23:30:35.939Z,12.15
2023-02-13T23:35:39.013Z,11.35
2023-02-13T23:40:42.064Z,12.13
2023-02-13T23:45:45.339Z,11.38
2023-02-13T23:55:51.515Z,12.23
